Terminal Aerodrome Forecast
Issued by NWS

Home | Current Version | Previous Version | Text Only | Print | Product List | Glossary On
Versions: 1 2 3 4 5 6 7 8 9 10 11 12 13 14 15
000
FTPQ31 PGUM 052322
TAFGUM
TAF

TAF
PTPN 052322Z 0600/0624 10015KT 6SM -SHRA SCT016 BKN040 OVC110
      TEMPO 0600/0603 09015G23KT 3SM TSRA BKN015CB OVC030
     FM060500 09012KT P6SM VCSH SCT016 SCT040 BKN120=

USA.gov is the U.S. government's official web portal to all federal, state and local government web resources and services.